Main page
METAR-TAF:

METAR-TAF

Airports :

Berlin Tegel Airport

Berlin, Germany

latitude: 52-34N, longitude: 013-19E, elevation: 37 m

Current weather observation

The report was made 18 minutes ago, at 10:50 UTC
Wind 16 kt from the West/Southwest
Temperature 8°C
Humidity 39%
Pressure 1020 hPa
Visibility 10 km or more
Broken clouds at a height of 4300 ft

METAR: EDDT 011050Z 25016KT 9999 BKN043 08/M05 Q1020 TEMPO 25015G25KT

Time: 13:08 (11:08 UTC)

Forecast

The report was made 6 hours and 8 minutes ago, at 05:00 UTC
Forecast valid from 01 at 06 UTC to 02 at 06 UTC
Wind 7 kt from the Southwest
Visibility 10 km or more
no clouds below 1500 m and no cumulonimbus
Becoming
from 01 at 06 UTC to 01 at 09 UTC
Wind 12 kt from the West/Southwest
Becoming
from 01 at 17 UTC to 01 at 20 UTC
Wind 5 kt from the West/Southwest

TAF: EDDT 010500Z 0106/0206 23007KT CAVOK BECMG 0106/0109 25012KT BECMG 0117/0120 24005KT

Weather observations and forecasts of more than 4000 airports (METAR and TAF reports).

The available stations are represented by yellow and red dots on the map.

Hover mouse over dot to see the name of the station.

Then click to see weather observations and forecasts.

To change the map : click on the green buttons with a black cross to zoom in, on the green button with a dash to zoom out, or on the green arrows for adjacent maps.


METAR-TAF: